createdAt,value
2018-11-04T00:01:38.228Z,16.57
2018-11-04T00:04:06.835Z,15.83
2018-11-04T00:06:35.136Z,15.87
2018-11-04T00:09:04.301Z,16.43
2018-11-04T00:11:32.728Z,20.97
2018-11-04T00:14:01.045Z,18.83
2018-11-04T00:16:29.360Z,19.43
2018-11-04T00:18:57.637Z,20.63
2018-11-04T00:21:25.953Z,20.67
2018-11-04T00:23:54.361Z,20.17
2018-11-04T00:26:22.997Z,21.77
2018-11-04T00:28:51.482Z,19.57
2018-11-04T00:31:19.914Z,19.50
2018-11-04T00:33:48.169Z,19.50
2018-11-04T00:36:16.466Z,19.07
2018-11-04T00:38:44.770Z,18.00
2018-11-04T00:41:13.109Z,18.30
2018-11-04T00:43:41.473Z,18.30
2018-11-04T00:46:09.872Z,17.80
2018-11-04T00:48:38.605Z,17.93
2018-11-04T00:51:07.111Z,17.83
2018-11-04T00:53:35.445Z,17.70
2018-11-04T00:56:03.805Z,18.07
2018-11-04T00:58:32.142Z,18.60
2018-11-04T01:01:00.462Z,17.43
2018-11-04T01:03:28.983Z,17.97
2018-11-04T01:05:57.368Z,18.17
2018-11-04T01:08:25.695Z,16.90
2018-11-04T01:10:54.006Z,17.73
2018-11-04T01:13:22.313Z,18.30
2018-11-04T01:15:50.684Z,17.17
2018-11-04T01:18:19.026Z,17.80
2018-11-04T01:20:47.534Z,17.23
2018-11-04T01:23:15.922Z,18.27
2018-11-04T01:25:44.291Z,19.23
2018-11-04T01:28:12.605Z,17.83
2018-11-04T01:30:45.034Z,17.20
2018-11-04T01:33:13.321Z,18.97
2018-11-04T01:35:41.675Z,17.53
2018-11-04T01:38:10.082Z,17.33
2018-11-04T01:40:38.396Z,18.73
2018-11-04T01:43:06.733Z,18.63
2018-11-04T01:45:35.092Z,18.10
2018-11-04T01:48:03.382Z,19.57
2018-11-04T01:50:31.733Z,18.93
2018-11-04T01:53:00.050Z,19.77
2018-11-04T01:55:28.565Z,20.00
2018-11-04T01:57:56.871Z,19.47
2018-11-04T02:00:25.213Z,18.67
2018-11-04T02:02:53.725Z,19.10
2018-11-04T02:05:22.038Z,18.37
2018-11-04T02:07:50.372Z,18.50
2018-11-04T02:10:18.707Z,19.10
2018-11-04T02:12:47.123Z,18.93
2018-11-04T02:15:15.408Z,18.13
2018-11-04T02:17:43.909Z,20.07
2018-11-04T02:20:13.374Z,19.70
2018-11-04T02:22:42.128Z,18.53
2018-11-04T02:25:11.758Z,19.70
2018-11-04T02:27:40.422Z,19.87
2018-11-04T02:30:11.233Z,19.27
2018-11-04T02:32:39.670Z,19.63
2018-11-04T02:35:08.152Z,19.37
2018-11-04T02:37:36.769Z,19.03
2018-11-04T02:40:05.539Z,19.67
2018-11-04T02:42:33.954Z,19.63
2018-11-04T02:45:02.286Z,19.13
2018-11-04T02:47:30.641Z,19.77
2018-11-04T02:49:58.971Z,19.43
2018-11-04T02:52:27.422Z,20.07
2018-11-04T02:54:55.764Z,19.53
2018-11-04T02:57:24.224Z,19.53
2018-11-04T02:59:52.623Z,19.57
2018-11-04T03:02:20.950Z,19.63
2018-11-04T03:04:49.321Z,20.10
2018-11-04T03:07:17.719Z,19.00
2018-11-04T03:09:46.046Z,20.03
2018-11-04T03:12:14.372Z,20.40
2018-11-04T03:14:42.989Z,21.17
2018-11-04T03:17:11.325Z,19.33
2018-11-04T03:19:39.744Z,21.57
2018-11-04T03:22:08.089Z,19.57
2018-11-04T03:24:36.431Z,20.73
2018-11-04T03:27:04.991Z,20.93
2018-11-04T03:30:37.070Z,19.70
2018-11-04T03:33:05.853Z,19.53
2018-11-04T03:35:34.256Z,19.90
2018-11-04T03:38:02.565Z,20.00
2018-11-04T03:40:31.015Z,21.30
2018-11-04T03:42:59.354Z,20.10
2018-11-04T03:45:27.702Z,20.23
2018-11-04T03:47:56.132Z,20.77
2018-11-04T03:50:24.422Z,22.70
2018-11-04T03:52:52.732Z,21.93
2018-11-04T03:55:21.188Z,23.63
2018-11-04T03:57:49.483Z,21.73
2018-11-04T04:00:17.979Z,22.57
2018-11-04T04:02:46.304Z,23.17
2018-11-04T04:05:14.713Z,22.97
2018-11-04T04:07:43.091Z,23.17
2018-11-04T04:10:11.669Z,23.60
2018-11-04T04:12:40.038Z,22.10
2018-11-04T04:15:09.564Z,22.03
2018-11-04T04:17:37.905Z,23.70
2018-11-04T04:20:06.747Z,22.23
2018-11-04T04:22:35.291Z,24.77
2018-11-04T04:25:03.680Z,23.57
2018-11-04T04:27:31.981Z,23.43
2018-11-04T04:30:00.478Z,24.73
2018-11-04T04:32:28.827Z,23.97
2018-11-04T04:34:57.275Z,25.10
2018-11-04T04:37:25.680Z,23.47
2018-11-04T04:39:53.977Z,24.17
2018-11-04T04:42:22.269Z,24.43
2018-11-04T04:44:50.690Z,26.10
2018-11-04T04:47:19.072Z,23.73
2018-11-04T04:49:47.404Z,24.67
2018-11-04T04:52:15.722Z,25.53
2018-11-04T04:54:44.299Z,23.57
2018-11-04T04:57:12.634Z,25.03
2018-11-04T04:59:40.941Z,25.90
2018-11-04T05:02:09.483Z,24.90
2018-11-04T05:04:37.817Z,25.07
2018-11-04T05:07:06.153Z,25.10
2018-11-04T05:09:34.536Z,25.00
2018-11-04T05:12:02.910Z,25.37
2018-11-04T05:14:31.398Z,24.73
2018-11-04T05:17:00.129Z,25.47
2018-11-04T05:19:28.463Z,25.37
2018-11-04T05:21:56.760Z,25.07
2018-11-04T05:24:25.081Z,25.63
2018-11-04T05:26:53.487Z,25.50
2018-11-04T05:29:21.976Z,25.77
2018-11-04T05:31:50.274Z,25.13
2018-11-04T05:34:18.758Z,24.13
2018-11-04T05:36:47.123Z,25.17
2018-11-04T05:39:15.434Z,26.07
2018-11-04T05:41:43.798Z,25.23
2018-11-04T05:44:12.144Z,26.27
2018-11-04T05:46:40.431Z,25.50
2018-11-04T05:49:08.895Z,25.17
2018-11-04T05:51:37.253Z,25.23
2018-11-04T05:54:05.891Z,26.17
2018-11-04T05:56:34.233Z,26.13
2018-11-04T05:59:02.543Z,24.33
2018-11-04T06:01:30.922Z,24.80
2018-11-04T06:03:59.277Z,25.00
2018-11-04T06:06:27.605Z,25.27
2018-11-04T06:08:55.975Z,24.00
2018-11-04T06:11:24.266Z,25.70
2018-11-04T06:13:52.569Z,24.87
2018-11-04T06:16:20.850Z,24.47
2018-11-04T06:18:49.166Z,25.53
2018-11-04T06:21:17.503Z,24.47
2018-11-04T06:23:45.849Z,24.57
2018-11-04T06:26:14.194Z,24.20
2018-11-04T06:28:42.576Z,24.03
2018-11-04T06:31:10.997Z,23.43
2018-11-04T06:33:39.420Z,24.33
2018-11-04T06:36:07.765Z,23.57
2018-11-04T06:38:36.262Z,23.60
2018-11-04T06:41:04.576Z,23.67
2018-11-04T06:43:32.973Z,25.07
2018-11-04T06:46:01.368Z,23.77
2018-11-04T06:48:29.674Z,25.37
2018-11-04T06:50:58.477Z,23.97
2018-11-04T06:53:29.594Z,24.17
2018-11-04T06:55:58.042Z,24.13
2018-11-04T06:58:26.431Z,24.03
2018-11-04T07:00:54.982Z,23.87
2018-11-04T07:03:23.433Z,23.37
2018-11-04T07:05:51.944Z,24.20
2018-11-04T07:08:20.415Z,24.23
2018-11-04T07:10:48.923Z,25.20
2018-11-04T07:13:18.774Z,22.83
2018-11-04T07:15:47.335Z,23.33
2018-11-04T07:18:15.826Z,22.23
2018-11-04T07:20:44.338Z,22.37
2018-11-04T07:23:36.416Z,22.90
2018-11-04T07:26:05.170Z,22.37
2018-11-04T07:28:34.016Z,21.60
2018-11-04T07:31:02.866Z,21.47
2018-11-04T07:33:31.485Z,22.60
2018-11-04T07:35:59.833Z,21.90
2018-11-04T07:38:28.114Z,23.33
2018-11-04T07:40:57.436Z,21.90
2018-11-04T07:43:25.893Z,21.43
2018-11-04T07:45:54.271Z,20.83
2018-11-04T07:48:22.652Z,20.27
2018-11-04T07:50:51.092Z,20.13
2018-11-04T07:53:19.416Z,19.80
2018-11-04T07:55:47.722Z,21.10
2018-11-04T07:58:16.058Z,20.83
2018-11-04T08:00:45.121Z,21.13
2018-11-04T08:03:13.470Z,20.50
2018-11-04T08:05:41.769Z,19.80
2018-11-04T08:08:13.061Z,20.13
2018-11-04T08:10:41.413Z,19.03
2018-11-04T08:13:11.050Z,18.47
2018-11-04T08:15:39.745Z,18.70
2018-11-04T08:18:08.199Z,18.57
2018-11-04T08:20:36.515Z,19.07
2018-11-04T08:23:04.990Z,19.87
2018-11-04T08:25:33.620Z,19.70
2018-11-04T08:28:01.990Z,18.20
2018-11-04T08:30:30.257Z,18.67
2018-11-04T08:32:58.561Z,18.57
2018-11-04T08:35:26.989Z,18.67
2018-11-04T08:37:55.271Z,16.70
2018-11-04T08:40:23.768Z,17.03
2018-11-04T08:42:55.839Z,18.57
2018-11-04T08:45:24.639Z,17.60
2018-11-04T08:47:53.652Z,18.23
2018-11-04T08:50:22.085Z,18.73
2018-11-04T08:52:51.032Z,18.37
2018-11-04T08:55:19.429Z,20.27
2018-11-04T08:57:48.532Z,17.70
2018-11-04T09:00:21.086Z,19.17
2018-11-04T09:02:51.002Z,18.50
2018-11-04T09:05:25.447Z,18.93
2018-11-04T09:08:04.060Z,19.17
2018-11-04T09:10:37.131Z,18.50
2018-11-04T09:13:12.083Z,18.43
2018-11-04T09:15:56.342Z,19.30
2018-11-04T09:18:25.846Z,18.80
2018-11-04T09:20:55.510Z,18.23
2018-11-04T09:23:24.444Z,18.13
2018-11-04T09:25:53.345Z,18.27
2018-11-04T09:28:22.138Z,18.03
2018-11-04T09:30:51.936Z,20.57
2018-11-04T09:33:20.731Z,19.77
2018-11-04T09:35:49.501Z,19.73
2018-11-04T09:38:18.618Z,19.53
2018-11-04T09:40:46.976Z,20.03
2018-11-04T09:43:16.002Z,19.40
2018-11-04T09:45:44.925Z,20.00
2018-11-04T09:48:13.413Z,19.70
2018-11-04T09:50:41.979Z,20.53
2018-11-04T09:53:11.062Z,19.20
2018-11-04T09:55:40.338Z,19.20
2018-11-04T09:58:09.224Z,19.97
2018-11-04T10:00:37.606Z,20.07
2018-11-04T10:03:07.109Z,20.00
2018-11-04T10:05:37.036Z,20.53
2018-11-04T10:08:05.799Z,18.60
2018-11-04T10:10:35.404Z,18.27
2018-11-04T10:13:04.930Z,18.77
2018-11-04T10:15:33.520Z,19.17
2018-11-04T10:18:04.422Z,18.87
2018-11-04T10:20:33.105Z,19.70
2018-11-04T10:23:01.173Z,19.23
2018-11-04T10:25:29.885Z,19.43
2018-11-04T10:27:59.389Z,19.73
2018-11-04T10:30:27.880Z,19.73
2018-11-04T10:32:56.937Z,18.97
2018-11-04T10:35:26.041Z,18.37
2018-11-04T10:37:54.735Z,19.93
2018-11-04T10:40:23.066Z,20.10
2018-11-04T10:42:51.905Z,19.87
2018-11-04T10:45:20.495Z,19.50
2018-11-04T10:47:48.831Z,20.27
2018-11-04T10:50:17.369Z,19.87
2018-11-04T10:52:47.545Z,19.77
2018-11-04T10:55:16.040Z,19.23
2018-11-04T10:57:45.273Z,19.17
2018-11-04T11:00:19.597Z,18.87
2018-11-04T11:02:47.932Z,19.57
2018-11-04T11:05:16.493Z,18.67
2018-11-04T11:07:47.426Z,19.97
2018-11-04T11:10:15.905Z,19.47
2018-11-04T11:12:44.255Z,19.13
2018-11-04T11:15:13.425Z,19.70
2018-11-04T11:17:41.980Z,18.87
2018-11-04T11:20:12.340Z,18.93
2018-11-04T11:22:41.153Z,18.33
2018-11-04T11:25:10.493Z,19.13
2018-11-04T11:27:39.013Z,18.07
2018-11-04T11:30:07.784Z,19.00
2018-11-04T11:32:36.185Z,19.30
2018-11-04T11:35:04.718Z,19.27
2018-11-04T11:37:33.280Z,18.60
2018-11-04T11:40:01.514Z,19.13
2018-11-04T11:42:30.177Z,18.57
2018-11-04T11:44:58.683Z,17.67
2018-11-04T11:47:26.941Z,17.57
2018-11-04T11:49:55.307Z,18.57
2018-11-04T11:52:24.183Z,18.53
2018-11-04T11:54:52.714Z,18.17
2018-11-04T11:57:21.348Z,18.83
2018-11-04T11:59:49.834Z,16.70
2018-11-04T12:02:18.278Z,17.73
2018-11-04T12:04:46.630Z,17.33
2018-11-04T12:07:15.205Z,16.90
2018-11-04T12:09:43.885Z,16.43
2018-11-04T12:12:12.267Z,16.40
2018-11-04T12:14:40.852Z,15.63
2018-11-04T12:17:09.266Z,15.77
2018-11-04T12:19:37.653Z,15.10
2018-11-04T12:22:06.112Z,15.73
2018-11-04T12:24:34.456Z,16.37
2018-11-04T12:27:02.775Z,16.17
2018-11-04T12:29:31.122Z,15.77
2018-11-04T12:31:59.433Z,15.57
2018-11-04T12:34:27.880Z,15.07
2018-11-04T12:36:56.230Z,15.03
2018-11-04T12:39:24.541Z,15.67
2018-11-04T12:41:52.820Z,14.77
2018-11-04T12:44:21.690Z,16.03
2018-11-04T12:46:50.020Z,13.97
2018-11-04T12:49:18.323Z,14.77
2018-11-04T12:51:46.718Z,15.03
2018-11-04T12:54:15.922Z,13.80
2018-11-04T12:56:44.256Z,13.27
2018-11-04T12:59:12.573Z,13.53
2018-11-04T13:01:40.892Z,12.60
2018-11-04T13:04:09.500Z,12.73
2018-11-04T13:06:37.832Z,11.73
2018-11-04T13:09:08.169Z,11.73
2018-11-04T13:11:37.325Z,11.73
2018-11-04T13:14:06.465Z,12.67
2018-11-04T13:16:35.040Z,11.53
2018-11-04T13:19:03.404Z,11.10
2018-11-04T13:21:32.038Z,12.73
2018-11-04T13:24:00.360Z,11.73
2018-11-04T13:26:28.872Z,13.07
2018-11-04T13:28:57.390Z,12.77
2018-11-04T13:31:25.885Z,11.50
2018-11-04T13:33:54.397Z,11.83
2018-11-04T13:36:22.887Z,11.40
2018-11-04T13:38:51.523Z,11.83
2018-11-04T13:41:19.864Z,11.47
2018-11-04T13:43:48.190Z,11.63
2018-11-04T13:46:16.536Z,10.67
2018-11-04T13:48:44.906Z,11.07
2018-11-04T13:51:13.219Z,12.87
2018-11-04T13:53:41.610Z,11.93
2018-11-04T13:56:10.227Z,11.67
2018-11-04T13:58:39.372Z,11.93
2018-11-04T14:01:07.733Z,11.17
2018-11-04T14:03:37.129Z,11.33
2018-11-04T14:06:05.460Z,11.47
2018-11-04T14:08:34.359Z,11.53
2018-11-04T14:11:02.760Z,11.57
2018-11-04T14:13:31.353Z,10.87
2018-11-04T14:15:59.582Z,12.17
2018-11-04T14:18:27.994Z,11.97
2018-11-04T14:20:56.395Z,12.87
2018-11-04T14:23:24.956Z,11.70
2018-11-04T14:25:53.312Z,11.50
2018-11-04T14:28:21.718Z,10.83
2018-11-04T14:30:50.041Z,10.90
2018-11-04T14:33:18.598Z,11.53
2018-11-04T14:35:49.825Z,10.47
2018-11-04T14:38:23.357Z,10.90
2018-11-04T14:43:51.954Z,12.70
2018-11-04T14:52:19.672Z,10.90
2018-11-04T14:54:48.088Z,11.10
2018-11-04T14:57:22.082Z,11.33
2018-11-04T14:59:51.174Z,11.17
2018-11-04T15:02:19.788Z,10.83
2018-11-04T15:04:48.401Z,10.83
2018-11-04T15:07:20.517Z,11.10
2018-11-04T15:15:53.255Z,11.43
2018-11-04T15:18:21.868Z,10.87
2018-11-04T15:20:50.243Z,11.60
2018-11-04T15:23:30.665Z,11.33
2018-11-04T15:31:45.908Z,10.53
2018-11-04T15:37:09.508Z,10.93
2018-11-04T15:39:40.459Z,10.67
2018-11-04T15:42:09.873Z,10.70
2018-11-04T15:44:39.485Z,11.70
2018-11-04T15:47:18.947Z,22.63
2018-11-04T15:49:48.165Z,16.40
2018-11-04T15:52:18.376Z,17.53
2018-11-04T15:54:59.887Z,12.07
2018-11-04T15:57:33.790Z,18.63
2018-11-04T16:00:04.193Z,25.47
2018-11-04T16:05:54.379Z,15.57
2018-11-04T16:08:22.733Z,12.17
2018-11-04T16:10:51.149Z,13.77
2018-11-04T16:13:19.647Z,14.37
2018-11-04T16:15:48.153Z,28.23
2018-11-04T16:18:16.585Z,17.67
2018-11-04T16:20:45.247Z,17.80
2018-11-04T16:23:13.762Z,15.23
2018-11-04T16:25:42.486Z,12.30
2018-11-04T16:28:10.917Z,11.97
2018-11-04T16:30:41.741Z,10.90
2018-11-04T16:33:10.787Z,11.00
2018-11-04T16:35:39.464Z,11.67
2018-11-04T16:38:08.030Z,11.53
2018-11-04T16:40:36.384Z,11.30
2018-11-04T16:43:04.725Z,11.33
2018-11-04T16:45:33.062Z,15.20
2018-11-04T16:48:01.543Z,12.33
2018-11-04T16:50:30.157Z,11.63
2018-11-04T16:52:58.605Z,12.63
2018-11-04T16:55:26.931Z,11.30
2018-11-04T16:57:55.636Z,11.97
2018-11-04T17:00:23.976Z,13.27
2018-11-04T17:02:52.349Z,12.13
2018-11-04T17:05:20.879Z,11.77
2018-11-04T17:07:49.317Z,12.57
2018-11-04T17:10:17.692Z,11.93
2018-11-04T17:12:45.968Z,11.43
2018-11-04T17:15:15.354Z,12.77
2018-11-04T17:17:43.982Z,12.40
2018-11-04T17:20:14.322Z,12.87
2018-11-04T17:22:43.226Z,12.20
2018-11-04T17:25:12.042Z,11.60
2018-11-04T17:27:40.618Z,11.27
2018-11-04T17:30:14.609Z,11.93
2018-11-04T17:32:43.188Z,11.90
2018-11-04T17:35:13.204Z,11.60
2018-11-04T17:37:42.204Z,10.93
2018-11-04T17:40:11.623Z,11.00
2018-11-04T17:42:39.900Z,10.87
2018-11-04T17:45:10.012Z,11.43
2018-11-04T17:47:38.948Z,11.50
2018-11-04T17:50:09.787Z,11.93
2018-11-04T17:52:38.156Z,12.63
2018-11-04T17:55:06.575Z,11.80
2018-11-04T17:57:34.964Z,12.53
2018-11-04T18:00:03.352Z,13.03
2018-11-04T18:02:31.672Z,12.40
2018-11-04T18:04:59.977Z,12.00
2018-11-04T18:07:28.371Z,12.43
2018-11-04T18:09:56.824Z,12.03
2018-11-04T18:12:25.092Z,11.97
2018-11-04T18:14:53.425Z,12.17
2018-11-04T18:17:21.796Z,12.10
2018-11-04T18:19:50.175Z,13.27
2018-11-04T18:22:18.630Z,13.03
2018-11-04T18:24:46.896Z,14.33
2018-11-04T18:27:15.694Z,14.90
2018-11-04T18:29:43.984Z,13.33
2018-11-04T18:32:12.417Z,13.43
2018-11-04T18:34:40.665Z,12.70
2018-11-04T18:37:09.090Z,13.43
2018-11-04T18:39:37.367Z,13.13
2018-11-04T18:42:05.991Z,13.73
2018-11-04T18:44:34.493Z,14.37
2018-11-04T18:47:02.744Z,13.80
2018-11-04T18:49:31.199Z,12.73
2018-11-04T18:51:59.819Z,13.63
2018-11-04T18:54:28.458Z,12.97
2018-11-04T18:56:56.778Z,12.87
2018-11-04T18:59:25.786Z,12.93
2018-11-04T19:01:54.137Z,13.30
2018-11-04T19:04:22.563Z,12.40
2018-11-04T19:06:51.080Z,13.13
2018-11-04T19:09:19.463Z,12.63
2018-11-04T19:11:47.827Z,12.37
2018-11-04T19:14:16.110Z,12.07
2018-11-04T19:16:45.808Z,12.90
2018-11-04T19:19:14.221Z,12.50
2018-11-04T19:21:42.671Z,12.83
2018-11-04T19:24:11.021Z,14.60
2018-11-04T19:26:40.052Z,11.97
2018-11-04T19:29:08.717Z,12.07
2018-11-04T19:31:36.976Z,12.17
2018-11-04T19:34:05.436Z,13.77
2018-11-04T19:36:33.734Z,13.53
2018-11-04T19:39:02.109Z,12.30
2018-11-04T19:41:30.493Z,12.57
2018-11-04T19:43:58.932Z,12.83
2018-11-04T19:46:27.282Z,13.00
2018-11-04T19:48:55.567Z,13.57
2018-11-04T19:51:24.133Z,13.47
2018-11-04T19:53:52.420Z,13.00
2018-11-04T19:56:21.724Z,12.60
2018-11-04T19:58:50.077Z,13.73
2018-11-04T20:01:18.672Z,12.67
2018-11-04T20:03:47.083Z,12.17
2018-11-04T20:06:15.452Z,11.83
2018-11-04T20:08:48.853Z,12.33
2018-11-04T20:11:17.335Z,14.40
2018-11-04T20:13:50.899Z,13.50
2018-11-04T20:16:20.018Z,13.23
2018-11-04T20:18:53.637Z,12.80
2018-11-04T20:21:21.900Z,12.60
2018-11-04T20:23:50.614Z,13.13
2018-11-04T20:26:18.932Z,13.63
2018-11-04T20:28:48.523Z,13.20
2018-11-04T20:31:22.210Z,13.63
2018-11-04T20:33:50.637Z,14.70
2018-11-04T20:36:19.089Z,14.80
2018-11-04T20:38:52.708Z,14.77
2018-11-04T20:41:28.424Z,13.83
2018-11-04T20:43:56.864Z,14.03
2018-11-04T20:46:25.137Z,14.47
2018-11-04T20:48:58.872Z,15.23
2018-11-04T20:51:27.228Z,15.50
2018-11-04T20:53:55.993Z,15.03
2018-11-04T20:56:30.202Z,15.63
2018-11-04T20:58:58.669Z,16.23
2018-11-04T21:01:27.259Z,15.90
2018-11-04T21:03:55.826Z,14.80
2018-11-04T21:06:24.171Z,16.03
2018-11-04T21:08:52.614Z,15.40
2018-11-04T21:11:21.360Z,15.13
2018-11-04T21:13:49.635Z,15.17
2018-11-04T21:16:18.247Z,14.27
2018-11-04T21:18:46.504Z,15.53
2018-11-04T21:21:14.944Z,14.27
2018-11-04T21:23:45.596Z,14.43
2018-11-04T21:26:13.864Z,15.00
2018-11-04T21:28:42.327Z,15.13
2018-11-04T21:31:10.939Z,14.30
2018-11-04T21:33:39.438Z,15.43
2018-11-04T21:36:07.898Z,16.17
2018-11-04T21:38:36.404Z,15.03
2018-11-04T21:41:04.808Z,15.63
2018-11-04T21:43:33.215Z,15.30
2018-11-04T21:46:01.626Z,15.33
2018-11-04T21:48:29.938Z,15.77
2018-11-04T21:50:58.371Z,14.97
2018-11-04T21:53:27.117Z,14.50
2018-11-04T21:55:55.544Z,15.43
2018-11-04T21:58:23.755Z,15.60
2018-11-04T22:00:52.215Z,15.03
2018-11-04T22:03:20.846Z,15.63
2018-11-04T22:05:49.182Z,15.57
2018-11-04T22:08:18.132Z,15.77
2018-11-04T22:10:46.468Z,15.77
2018-11-04T22:13:14.834Z,15.93
2018-11-04T22:15:43.319Z,15.93
2018-11-04T22:18:11.757Z,17.10
2018-11-04T22:20:40.216Z,16.07
2018-11-04T22:23:08.638Z,15.93
2018-11-04T22:25:36.898Z,16.53
2018-11-04T22:28:05.326Z,15.47
2018-11-04T22:30:34.644Z,15.70
2018-11-04T22:33:03.058Z,15.97
2018-11-04T22:35:31.372Z,16.17
2018-11-04T22:37:59.645Z,16.07
2018-11-04T22:40:28.015Z,16.40
2018-11-04T22:42:56.305Z,16.37
2018-11-04T22:45:24.812Z,16.20
2018-11-04T22:47:53.195Z,15.30
2018-11-04T22:50:21.500Z,16.80
2018-11-04T22:52:49.782Z,16.33
2018-11-04T22:55:18.044Z,15.23
2018-11-04T22:57:46.466Z,14.87
2018-11-04T23:00:20.250Z,15.07
2018-11-04T23:02:49.691Z,14.83
2018-11-04T23:05:23.966Z,14.93
2018-11-04T23:07:52.703Z,15.93
2018-11-04T23:10:21.401Z,15.23
2018-11-04T23:12:49.846Z,14.90
2018-11-04T23:15:18.117Z,15.43
2018-11-04T23:17:46.497Z,14.27
2018-11-04T23:20:15.113Z,14.27
2018-11-04T23:22:44.326Z,14.33
2018-11-04T23:25:13.766Z,14.17
2018-11-04T23:27:42.850Z,14.07
2018-11-04T23:30:13.603Z,13.93
2018-11-04T23:32:43.393Z,14.70
2018-11-04T23:35:12.300Z,14.30
2018-11-04T23:37:41.085Z,14.83
2018-11-04T23:40:10.009Z,15.07
2018-11-04T23:42:38.272Z,14.77
2018-11-04T23:45:07.545Z,13.83
2018-11-04T23:47:35.837Z,14.13
2018-11-04T23:50:04.591Z,14.87
2018-11-04T23:52:32.902Z,13.67
2018-11-04T23:55:01.176Z,14.47
2018-11-04T23:57:29.448Z,15.07
2018-11-04T23:59:57.741Z,14.50
